sensor_id;sensor_type;location;lat;lon;timestamp;temperature;humidity
5276;DHT22;2661;50.786;12.728;2023-04-28T00:01:09;6.10;99.90
5276;DHT22;2661;50.786;12.728;2023-04-28T00:03:36;6.00;99.90
5276;DHT22;2661;50.786;12.728;2023-04-28T00:06:03;5.90;99.90
5276;DHT22;2661;50.786;12.728;2023-04-28T00:08:29;5.90;99.90
5276;DHT22;2661;50.786;12.728;2023-04-28T00:10:56;5.90;99.90
5276;DHT22;2661;50.786;12.728;2023-04-28T00:13:23;5.90;99.90
5276;DHT22;2661;50.786;12.728;2023-04-28T00:15:49;5.90;99.90
5276;DHT22;2661;50.786;12.728;2023-04-28T00:18:18;5.90;99.90
5276;DHT22;2661;50.786;12.728;2023-04-28T00:20:45;5.90;99.90
5276;DHT22;2661;50.786;12.728;2023-04-28T00:23:12;5.90;99.90
5276;DHT22;2661;50.786;12.728;2023-04-28T00:25:38;5.90;99.90
5276;DHT22;2661;50.786;12.728;2023-04-28T00:28:05;5.90;99.90
5276;DHT22;2661;50.786;12.728;2023-04-28T00:30:31;5.90;99.90
5276;DHT22;2661;50.786;12.728;2023-04-28T00:32:58;5.90;99.90
5276;DHT22;2661;50.786;12.728;2023-04-28T00:35:24;6.00;99.90
5276;DHT22;2661;50.786;12.728;2023-04-28T00:37:51;5.90;99.90
5276;DHT22;2661;50.786;12.728;2023-04-28T00:40:18;6.00;99.90
5276;DHT22;2661;50.786;12.728;2023-04-28T00:42:44;6.00;99.90
5276;DHT22;2661;50.786;12.728;2023-04-28T00:45:11;6.00;99.90
5276;DHT22;2661;50.786;12.728;2023-04-28T00:47:37;6.00;99.90
5276;DHT22;2661;50.786;12.728;2023-04-28T00:50:04;6.00;99.90
5276;DHT22;2661;50.786;12.728;2023-04-28T00:52:31;6.00;99.90
5276;DHT22;2661;50.786;12.728;2023-04-28T00:54:58;6.00;99.90
5276;DHT22;2661;50.786;12.728;2023-04-28T00:57:25;5.90;99.90
5276;DHT22;2661;50.786;12.728;2023-04-28T00:59:51;5.90;99.90
5276;DHT22;2661;50.786;12.728;2023-04-28T01:02:18;5.90;99.90
5276;DHT22;2661;50.786;12.728;2023-04-28T01:04:45;5.90;99.90
5276;DHT22;2661;50.786;12.728;2023-04-28T01:07:12;5.80;99.90
5276;DHT22;2661;50.786;12.728;2023-04-28T01:09:38;5.80;99.90
5276;DHT22;2661;50.786;12.728;2023-04-28T01:12:05;5.70;99.90
5276;DHT22;2661;50.786;12.728;2023-04-28T01:14:32;5.70;99.90
5276;DHT22;2661;50.786;12.728;2023-04-28T01:16:58;5.70;99.90
5276;DHT22;2661;50.786;12.728;2023-04-28T01:19:25;5.70;99.90
5276;DHT22;2661;50.786;12.728;2023-04-28T01:21:53;5.60;99.90
5276;DHT22;2661;50.786;12.728;2023-04-28T01:24:19;5.60;99.90
5276;DHT22;2661;50.786;12.728;2023-04-28T01:26:46;5.70;99.90
5276;DHT22;2661;50.786;12.728;2023-04-28T01:29:13;5.70;99.90
5276;DHT22;2661;50.786;12.728;2023-04-28T01:31:39;5.70;99.90
5276;DHT22;2661;50.786;12.728;2023-04-28T01:34:06;5.70;99.90
5276;DHT22;2661;50.786;12.728;2023-04-28T01:36:33;5.70;99.90
5276;DHT22;2661;50.786;12.728;2023-04-28T01:39:03;5.70;99.90
5276;DHT22;2661;50.786;12.728;2023-04-28T01:41:29;5.70;99.90
5276;DHT22;2661;50.786;12.728;2023-04-28T01:43:56;5.60;99.90
5276;DHT22;2661;50.786;12.728;2023-04-28T01:46:23;5.50;99.90
5276;DHT22;2661;50.786;12.728;2023-04-28T01:48:49;5.40;99.90
5276;DHT22;2661;50.786;12.728;2023-04-28T01:51:16;5.40;99.90
5276;DHT22;2661;50.786;12.728;2023-04-28T01:53:42;5.40;99.90
5276;DHT22;2661;50.786;12.728;2023-04-28T01:56:09;5.40;99.90
5276;DHT22;2661;50.786;12.728;2023-04-28T01:58:35;5.30;99.90
5276;DHT22;2661;50.786;12.728;2023-04-28T02:01:02;5.20;99.90
5276;DHT22;2661;50.786;12.728;2023-04-28T02:03:29;5.20;99.90
5276;DHT22;2661;50.786;12.728;2023-04-28T02:05:55;5.10;99.90
5276;DHT22;2661;50.786;12.728;2023-04-28T02:08:22;5.20;99.90
5276;DHT22;2661;50.786;12.728;2023-04-28T02:10:49;5.10;99.90
5276;DHT22;2661;50.786;12.728;2023-04-28T02:13:16;5.10;99.90
5276;DHT22;2661;50.786;12.728;2023-04-28T02:15:43;5.20;99.90
5276;DHT22;2661;50.786;12.728;2023-04-28T02:18:09;5.20;99.90
5276;DHT22;2661;50.786;12.728;2023-04-28T02:20:36;5.30;99.90
5276;DHT22;2661;50.786;12.728;2023-04-28T02:23:02;5.30;99.90
5276;DHT22;2661;50.786;12.728;2023-04-28T02:25:29;5.40;99.90
5276;DHT22;2661;50.786;12.728;2023-04-28T02:27:55;5.40;99.90
5276;DHT22;2661;50.786;12.728;2023-04-28T02:30:22;5.30;99.90
5276;DHT22;2661;50.786;12.728;2023-04-28T02:32:49;5.40;99.90
5276;DHT22;2661;50.786;12.728;2023-04-28T02:35:16;5.40;99.90
5276;DHT22;2661;50.786;12.728;2023-04-28T02:37:42;5.40;99.90
5276;DHT22;2661;50.786;12.728;2023-04-28T02:40:09;5.60;99.90
5276;DHT22;2661;50.786;12.728;2023-04-28T02:42:35;5.50;99.90
5276;DHT22;2661;50.786;12.728;2023-04-28T02:45:02;5.60;99.90
5276;DHT22;2661;50.786;12.728;2023-04-28T02:47:29;5.60;99.90
5276;DHT22;2661;50.786;12.728;2023-04-28T02:49:55;5.60;99.90
5276;DHT22;2661;50.786;12.728;2023-04-28T02:52:22;5.80;99.90
5276;DHT22;2661;50.786;12.728;2023-04-28T02:54:48;5.70;99.90
5276;DHT22;2661;50.786;12.728;2023-04-28T02:57:19;5.90;99.90
5276;DHT22;2661;50.786;12.728;2023-04-28T02:59:46;5.90;99.90
5276;DHT22;2661;50.786;12.728;2023-04-28T03:02:13;5.90;99.90
5276;DHT22;2661;50.786;12.728;2023-04-28T03:04:40;5.80;99.90
5276;DHT22;2661;50.786;12.728;2023-04-28T03:07:07;5.90;99.90
5276;DHT22;2661;50.786;12.728;2023-04-28T03:09:33;5.90;99.90
5276;DHT22;2661;50.786;12.728;2023-04-28T03:12:00;6.00;99.90
5276;DHT22;2661;50.786;12.728;2023-04-28T03:14:28;6.00;99.90
5276;DHT22;2661;50.786;12.728;2023-04-28T03:16:55;6.00;99.90
5276;DHT22;2661;50.786;12.728;2023-04-28T03:19:23;6.00;99.90
5276;DHT22;2661;50.786;12.728;2023-04-28T03:21:49;6.20;99.90
5276;DHT22;2661;50.786;12.728;2023-04-28T03:24:16;6.20;99.90
5276;DHT22;2661;50.786;12.728;2023-04-28T03:26:43;6.10;99.90
5276;DHT22;2661;50.786;12.728;2023-04-28T03:29:09;6.10;99.90
5276;DHT22;2661;50.786;12.728;2023-04-28T03:31:36;6.10;99.90
5276;DHT22;2661;50.786;12.728;2023-04-28T03:34:02;6.10;90.00
5276;DHT22;2661;50.786;12.728;2023-04-28T03:36:29;6.20;98.80
5276;DHT22;2661;50.786;12.728;2023-04-28T03:38:57;6.20;99.90
5276;DHT22;2661;50.786;12.728;2023-04-28T03:41:23;6.20;99.90
5276;DHT22;2661;50.786;12.728;2023-04-28T03:43:50;6.20;99.90
5276;DHT22;2661;50.786;12.728;2023-04-28T03:46:18;6.30;99.90
5276;DHT22;2661;50.786;12.728;2023-04-28T03:48:45;6.30;99.60
5276;DHT22;2661;50.786;12.728;2023-04-28T03:51:11;6.30;99.90
5276;DHT22;2661;50.786;12.728;2023-04-28T03:53:38;6.30;99.90
5276;DHT22;2661;50.786;12.728;2023-04-28T03:56:05;6.30;99.90
5276;DHT22;2661;50.786;12.728;2023-04-28T03:58:31;6.30;99.90
5276;DHT22;2661;50.786;12.728;2023-04-28T04:01:03;6.30;99.90
5276;DHT22;2661;50.786;12.728;2023-04-28T04:03:30;6.30;99.90
5276;DHT22;2661;50.786;12.728;2023-04-28T04:05:57;6.30;99.90
5276;DHT22;2661;50.786;12.728;2023-04-28T04:08:24;6.40;99.90
5276;DHT22;2661;50.786;12.728;2023-04-28T04:10:50;6.40;99.90
5276;DHT22;2661;50.786;12.728;2023-04-28T04:13:18;6.40;99.90
5276;DHT22;2661;50.786;12.728;2023-04-28T04:15:44;6.40;99.90
5276;DHT22;2661;50.786;12.728;2023-04-28T04:18:11;6.40;99.90
5276;DHT22;2661;50.786;12.728;2023-04-28T04:20:38;6.30;99.40
5276;DHT22;2661;50.786;12.728;2023-04-28T04:23:05;6.30;99.90
5276;DHT22;2661;50.786;12.728;2023-04-28T04:25:31;6.30;99.90
5276;DHT22;2661;50.786;12.728;2023-04-28T04:27:58;6.40;99.90
5276;DHT22;2661;50.786;12.728;2023-04-28T04:30:25;6.30;99.90
5276;DHT22;2661;50.786;12.728;2023-04-28T04:32:51;6.20;99.90
5276;DHT22;2661;50.786;12.728;2023-04-28T04:35:18;6.30;99.90
5276;DHT22;2661;50.786;12.728;2023-04-28T04:37:44;6.30;99.90
5276;DHT22;2661;50.786;12.728;2023-04-28T04:40:11;6.20;99.90
5276;DHT22;2661;50.786;12.728;2023-04-28T04:42:38;6.20;99.90
5276;DHT22;2661;50.786;12.728;2023-04-28T04:45:04;6.20;99.90
5276;DHT22;2661;50.786;12.728;2023-04-28T04:47:31;6.30;99.90
5276;DHT22;2661;50.786;12.728;2023-04-28T04:49:58;6.40;99.90
5276;DHT22;2661;50.786;12.728;2023-04-28T04:52:24;6.50;99.90
5276;DHT22;2661;50.786;12.728;2023-04-28T04:54:51;6.70;99.90
5276;DHT22;2661;50.786;12.728;2023-04-28T04:57:17;6.80;99.90
5276;DHT22;2661;50.786;12.728;2023-04-28T04:59:44;6.80;99.90
5276;DHT22;2661;50.786;12.728;2023-04-28T05:02:11;6.90;99.90
5276;DHT22;2661;50.786;12.728;2023-04-28T05:04:38;7.00;99.90
5276;DHT22;2661;50.786;12.728;2023-04-28T05:07:04;7.10;99.90
5276;DHT22;2661;50.786;12.728;2023-04-28T05:09:32;7.20;99.90
5276;DHT22;2661;50.786;12.728;2023-04-28T05:11:59;7.40;99.90
5276;DHT22;2661;50.786;12.728;2023-04-28T05:14:26;7.50;99.90
5276;DHT22;2661;50.786;12.728;2023-04-28T05:16:52;7.60;99.90
5276;DHT22;2661;50.786;12.728;2023-04-28T05:19:19;7.60;99.90
5276;DHT22;2661;50.786;12.728;2023-04-28T05:21:45;7.70;99.90
5276;DHT22;2661;50.786;12.728;2023-04-28T05:24:17;7.70;99.90
5276;DHT22;2661;50.786;12.728;2023-04-28T05:26:47;7.80;99.90
5276;DHT22;2661;50.786;12.728;2023-04-28T05:29:13;7.80;99.90
5276;DHT22;2661;50.786;12.728;2023-04-28T05:31:40;7.80;99.90
5276;DHT22;2661;50.786;12.728;2023-04-28T05:34:07;7.90;99.90
5276;DHT22;2661;50.786;12.728;2023-04-28T05:36:33;7.90;99.90
5276;DHT22;2661;50.786;12.728;2023-04-28T05:39:00;8.10;99.90
5276;DHT22;2661;50.786;12.728;2023-04-28T05:41:28;8.20;99.90
5276;DHT22;2661;50.786;12.728;2023-04-28T05:43:55;8.10;99.90
5276;DHT22;2661;50.786;12.728;2023-04-28T05:46:21;8.20;99.90
5276;DHT22;2661;50.786;12.728;2023-04-28T05:48:54;8.40;99.90
5276;DHT22;2661;50.786;12.728;2023-04-28T05:51:20;8.40;99.90
5276;DHT22;2661;50.786;12.728;2023-04-28T05:54:11;8.40;99.90
5276;DHT22;2661;50.786;12.728;2023-04-28T05:56:38;8.40;99.90
5276;DHT22;2661;50.786;12.728;2023-04-28T05:59:04;8.50;99.90
5276;DHT22;2661;50.786;12.728;2023-04-28T06:01:31;8.60;99.90
5276;DHT22;2661;50.786;12.728;2023-04-28T06:03:58;8.70;99.90
5276;DHT22;2661;50.786;12.728;2023-04-28T06:06:25;8.80;99.90
5276;DHT22;2661;50.786;12.728;2023-04-28T06:08:53;8.90;99.90
5276;DHT22;2661;50.786;12.728;2023-04-28T06:11:19;9.10;99.90
5276;DHT22;2661;50.786;12.728;2023-04-28T06:13:48;9.20;99.90
5276;DHT22;2661;50.786;12.728;2023-04-28T06:16:15;9.20;99.90
5276;DHT22;2661;50.786;12.728;2023-04-28T06:18:42;9.30;99.90
5276;DHT22;2661;50.786;12.728;2023-04-28T06:21:09;9.30;99.90
5276;DHT22;2661;50.786;12.728;2023-04-28T06:23:35;9.40;99.90
5276;DHT22;2661;50.786;12.728;2023-04-28T06:26:04;9.50;99.90
5276;DHT22;2661;50.786;12.728;2023-04-28T06:28:30;9.50;99.90
5276;DHT22;2661;50.786;12.728;2023-04-28T06:30:57;9.60;99.90
5276;DHT22;2661;50.786;12.728;2023-04-28T06:33:26;9.60;99.90
5276;DHT22;2661;50.786;12.728;2023-04-28T06:35:52;9.70;99.90
5276;DHT22;2661;50.786;12.728;2023-04-28T06:38:19;9.80;99.90
5276;DHT22;2661;50.786;12.728;2023-04-28T06:40:45;9.90;99.90
5276;DHT22;2661;50.786;12.728;2023-04-28T06:43:12;10.00;99.90
5276;DHT22;2661;50.786;12.728;2023-04-28T06:45:38;10.10;99.90
5276;DHT22;2661;50.786;12.728;2023-04-28T06:48:05;10.20;99.90
5276;DHT22;2661;50.786;12.728;2023-04-28T06:50:33;10.30;99.90
5276;DHT22;2661;50.786;12.728;2023-04-28T06:52:59;10.40;99.90
5276;DHT22;2661;50.786;12.728;2023-04-28T06:55:26;10.60;99.90
5276;DHT22;2661;50.786;12.728;2023-04-28T06:57:53;10.70;99.90
5276;DHT22;2661;50.786;12.728;2023-04-28T07:00:20;10.80;99.90
5276;DHT22;2661;50.786;12.728;2023-04-28T07:02:46;10.90;99.90
5276;DHT22;2661;50.786;12.728;2023-04-28T07:05:13;11.00;99.90
5276;DHT22;2661;50.786;12.728;2023-04-28T07:07:42;11.10;99.90
5276;DHT22;2661;50.786;12.728;2023-04-28T07:10:08;11.20;99.90
5276;DHT22;2661;50.786;12.728;2023-04-28T07:12:36;11.30;99.90
5276;DHT22;2661;50.786;12.728;2023-04-28T07:15:03;11.50;99.90
5276;DHT22;2661;50.786;12.728;2023-04-28T07:17:29;11.40;99.90
5276;DHT22;2661;50.786;12.728;2023-04-28T07:19:56;11.50;99.90
5276;DHT22;2661;50.786;12.728;2023-04-28T07:22:23;11.60;99.90
5276;DHT22;2661;50.786;12.728;2023-04-28T07:24:49;11.60;99.90
5276;DHT22;2661;50.786;12.728;2023-04-28T07:27:16;11.80;99.90
5276;DHT22;2661;50.786;12.728;2023-04-28T07:29:43;11.70;99.90
5276;DHT22;2661;50.786;12.728;2023-04-28T07:32:09;11.70;99.90
5276;DHT22;2661;50.786;12.728;2023-04-28T07:34:36;11.80;99.90
5276;DHT22;2661;50.786;12.728;2023-04-28T07:37:04;11.90;99.90
5276;DHT22;2661;50.786;12.728;2023-04-28T07:39:31;12.00;99.90
5276;DHT22;2661;50.786;12.728;2023-04-28T07:42:00;12.10;99.90
5276;DHT22;2661;50.786;12.728;2023-04-28T07:44:28;12.20;99.90
5276;DHT22;2661;50.786;12.728;2023-04-28T07:46:55;12.30;99.90
5276;DHT22;2661;50.786;12.728;2023-04-28T07:49:22;12.50;99.90
5276;DHT22;2661;50.786;12.728;2023-04-28T07:51:48;12.50;99.90
5276;DHT22;2661;50.786;12.728;2023-04-28T07:54:16;12.60;99.90
5276;DHT22;2661;50.786;12.728;2023-04-28T07:56:43;12.60;99.90
5276;DHT22;2661;50.786;12.728;2023-04-28T07:59:10;12.60;99.90
5276;DHT22;2661;50.786;12.728;2023-04-28T08:01:36;12.60;99.90
5276;DHT22;2661;50.786;12.728;2023-04-28T08:04:03;12.70;99.90
5276;DHT22;2661;50.786;12.728;2023-04-28T08:06:30;12.70;99.90
5276;DHT22;2661;50.786;12.728;2023-04-28T08:08:56;12.60;99.90
5276;DHT22;2661;50.786;12.728;2023-04-28T08:11:23;12.60;99.90
5276;DHT22;2661;50.786;12.728;2023-04-28T08:13:49;12.50;99.90
5276;DHT22;2661;50.786;12.728;2023-04-28T08:16:16;12.50;99.90
5276;DHT22;2661;50.786;12.728;2023-04-28T08:18:43;12.50;99.90
5276;DHT22;2661;50.786;12.728;2023-04-28T08:21:11;12.60;99.90
5276;DHT22;2661;50.786;12.728;2023-04-28T08:23:37;12.60;99.90
5276;DHT22;2661;50.786;12.728;2023-04-28T08:26:04;12.70;99.90
5276;DHT22;2661;50.786;12.728;2023-04-28T08:28:31;12.80;99.90
5276;DHT22;2661;50.786;12.728;2023-04-28T08:31:00;12.70;99.90
5276;DHT22;2661;50.786;12.728;2023-04-28T08:33:27;12.80;99.90
5276;DHT22;2661;50.786;12.728;2023-04-28T08:35:54;12.80;99.90
5276;DHT22;2661;50.786;12.728;2023-04-28T08:38:21;12.90;99.90
5276;DHT22;2661;50.786;12.728;2023-04-28T08:40:49;13.00;99.90
5276;DHT22;2661;50.786;12.728;2023-04-28T08:43:16;13.10;99.90
5276;DHT22;2661;50.786;12.728;2023-04-28T08:45:43;13.10;99.90
5276;DHT22;2661;50.786;12.728;2023-04-28T08:48:17;13.00;99.90
5276;DHT22;2661;50.786;12.728;2023-04-28T08:50:49;13.00;99.90
5276;DHT22;2661;50.786;12.728;2023-04-28T08:53:23;12.80;99.90
5276;DHT22;2661;50.786;12.728;2023-04-28T08:55:56;12.80;99.90
5276;DHT22;2661;50.786;12.728;2023-04-28T08:58:24;12.70;99.90
5276;DHT22;2661;50.786;12.728;2023-04-28T09:00:51;12.60;99.90
5276;DHT22;2661;50.786;12.728;2023-04-28T09:03:18;12.70;99.90
5276;DHT22;2661;50.786;12.728;2023-04-28T09:05:45;12.80;99.90
5276;DHT22;2661;50.786;12.728;2023-04-28T09:08:12;12.80;99.90
5276;DHT22;2661;50.786;12.728;2023-04-28T09:10:38;12.80;99.90
5276;DHT22;2661;50.786;12.728;2023-04-28T09:13:05;12.90;99.90
5276;DHT22;2661;50.786;12.728;2023-04-28T09:15:33;12.90;99.90
5276;DHT22;2661;50.786;12.728;2023-04-28T09:18:03;13.00;99.90
5276;DHT22;2661;50.786;12.728;2023-04-28T09:20:30;13.10;99.90
5276;DHT22;2661;50.786;12.728;2023-04-28T09:23:11;13.10;99.90
5276;DHT22;2661;50.786;12.728;2023-04-28T09:25:38;13.10;99.90
5276;DHT22;2661;50.786;12.728;2023-04-28T09:28:26;13.00;99.90
5276;DHT22;2661;50.786;12.728;2023-04-28T09:30:51;13.00;99.90
5276;DHT22;2661;50.786;12.728;2023-04-28T09:33:18;13.00;99.90
5276;DHT22;2661;50.786;12.728;2023-04-28T09:35:45;12.90;99.90
5276;DHT22;2661;50.786;12.728;2023-04-28T09:38:13;13.00;99.90
5276;DHT22;2661;50.786;12.728;2023-04-28T09:40:59;12.90;99.90
5276;DHT22;2661;50.786;12.728;2023-04-28T09:43:30;12.90;99.90
5276;DHT22;2661;50.786;12.728;2023-04-28T09:45:57;12.80;99.90
5276;DHT22;2661;50.786;12.728;2023-04-28T09:50:54;12.80;99.90
5276;DHT22;2661;50.786;12.728;2023-04-28T09:53:22;12.70;99.90
5276;DHT22;2661;50.786;12.728;2023-04-28T09:55:51;12.60;99.90
5276;DHT22;2661;50.786;12.728;2023-04-28T09:58:18;12.50;99.90
5276;DHT22;2661;50.786;12.728;2023-04-28T10:00:46;12.40;99.90
5276;DHT22;2661;50.786;12.728;2023-04-28T10:03:15;12.30;99.90
5276;DHT22;2661;50.786;12.728;2023-04-28T10:05:42;12.30;99.90
5276;DHT22;2661;50.786;12.728;2023-04-28T10:08:10;12.30;99.90
5276;DHT22;2661;50.786;12.728;2023-04-28T10:10:37;12.40;99.90
5276;DHT22;2661;50.786;12.728;2023-04-28T10:13:04;12.20;99.90
5276;DHT22;2661;50.786;12.728;2023-04-28T10:15:31;12.10;99.90
5276;DHT22;2661;50.786;12.728;2023-04-28T10:17:58;12.10;99.90
5276;DHT22;2661;50.786;12.728;2023-04-28T10:20:25;12.00;99.90
5276;DHT22;2661;50.786;12.728;2023-04-28T10:23:04;12.10;99.90
5276;DHT22;2661;50.786;12.728;2023-04-28T10:25:34;12.10;99.90
5276;DHT22;2661;50.786;12.728;2023-04-28T10:28:05;12.20;99.90
5276;DHT22;2661;50.786;12.728;2023-04-28T10:30:31;12.30;99.90
5276;DHT22;2661;50.786;12.728;2023-04-28T10:35:42;12.20;99.90
5276;DHT22;2661;50.786;12.728;2023-04-28T10:38:11;12.10;99.90
5276;DHT22;2661;50.786;12.728;2023-04-28T10:40:39;12.10;99.90
5276;DHT22;2661;50.786;12.728;2023-04-28T10:43:07;12.10;99.90
5276;DHT22;2661;50.786;12.728;2023-04-28T10:45:57;12.10;99.90
5276;DHT22;2661;50.786;12.728;2023-04-28T10:58:44;11.90;99.90
5276;DHT22;2661;50.786;12.728;2023-04-28T11:06:18;12.30;99.90
5276;DHT22;2661;50.786;12.728;2023-04-28T11:08:52;12.30;99.90
5276;DHT22;2661;50.786;12.728;2023-04-28T11:11:21;12.20;99.90
5276;DHT22;2661;50.786;12.728;2023-04-28T11:13:49;12.20;99.90
5276;DHT22;2661;50.786;12.728;2023-04-28T11:16:16;12.10;99.90
5276;DHT22;2661;50.786;12.728;2023-04-28T11:18:53;12.10;99.90
5276;DHT22;2661;50.786;12.728;2023-04-28T11:21:22;12.00;99.90
5276;DHT22;2661;50.786;12.728;2023-04-28T11:23:49;12.00;99.90
5276;DHT22;2661;50.786;12.728;2023-04-28T11:26:15;11.90;99.90
5276;DHT22;2661;50.786;12.728;2023-04-28T11:28:49;11.90;99.90
5276;DHT22;2661;50.786;12.728;2023-04-28T11:31:16;11.90;99.90
5276;DHT22;2661;50.786;12.728;2023-04-28T11:33:46;11.70;99.90
5276;DHT22;2661;50.786;12.728;2023-04-28T11:36:21;11.80;99.90
5276;DHT22;2661;50.786;12.728;2023-04-28T11:38:47;11.80;99.90
5276;DHT22;2661;50.786;12.728;2023-04-28T11:41:14;11.80;99.90
5276;DHT22;2661;50.786;12.728;2023-04-28T11:43:41;11.80;99.90
5276;DHT22;2661;50.786;12.728;2023-04-28T11:46:16;11.90;99.90
5276;DHT22;2661;50.786;12.728;2023-04-28T11:48:44;11.90;99.90
5276;DHT22;2661;50.786;12.728;2023-04-28T11:51:26;11.90;99.90
5276;DHT22;2661;50.786;12.728;2023-04-28T11:53:53;11.90;99.90
5276;DHT22;2661;50.786;12.728;2023-04-28T11:56:20;12.00;99.90
5276;DHT22;2661;50.786;12.728;2023-04-28T11:58:58;12.00;99.90
5276;DHT22;2661;50.786;12.728;2023-04-28T12:01:27;12.10;99.90
5276;DHT22;2661;50.786;12.728;2023-04-28T12:03:53;12.10;99.90
5276;DHT22;2661;50.786;12.728;2023-04-28T12:06:21;12.40;99.90
5276;DHT22;2661;50.786;12.728;2023-04-28T12:08:48;12.60;99.90
5276;DHT22;2661;50.786;12.728;2023-04-28T12:11:15;12.70;99.90
5276;DHT22;2661;50.786;12.728;2023-04-28T12:14:07;12.80;99.90
5276;DHT22;2661;50.786;12.728;2023-04-28T12:16:39;12.90;99.90
5276;DHT22;2661;50.786;12.728;2023-04-28T12:19:09;13.00;99.90
5276;DHT22;2661;50.786;12.728;2023-04-28T12:21:36;13.10;99.90
5276;DHT22;2661;50.786;12.728;2023-04-28T12:24:19;13.00;99.90
5276;DHT22;2661;50.786;12.728;2023-04-28T12:26:47;13.00;99.90
5276;DHT22;2661;50.786;12.728;2023-04-28T12:29:56;13.10;99.90
5276;DHT22;2661;50.786;12.728;2023-04-28T12:32:04;13.20;99.90
5276;DHT22;2661;50.786;12.728;2023-04-28T12:34:31;13.40;99.90
5276;DHT22;2661;50.786;12.728;2023-04-28T12:37:02;13.50;99.90
5276;DHT22;2661;50.786;12.728;2023-04-28T12:39:31;13.60;99.90
5276;DHT22;2661;50.786;12.728;2023-04-28T12:41:58;13.60;99.90
5276;DHT22;2661;50.786;12.728;2023-04-28T12:44:25;13.60;99.90
5276;DHT22;2661;50.786;12.728;2023-04-28T12:46:53;13.60;99.90
5276;DHT22;2661;50.786;12.728;2023-04-28T12:49:21;13.60;99.90
5276;DHT22;2661;50.786;12.728;2023-04-28T12:51:48;13.70;99.90
5276;DHT22;2661;50.786;12.728;2023-04-28T12:54:15;13.70;99.90
5276;DHT22;2661;50.786;12.728;2023-04-28T12:57:05;13.70;99.90
5276;DHT22;2661;50.786;12.728;2023-04-28T12:59:35;13.70;99.90
5276;DHT22;2661;50.786;12.728;2023-04-28T13:02:01;13.60;99.90
5276;DHT22;2661;50.786;12.728;2023-04-28T13:04:28;13.50;99.90
5276;DHT22;2661;50.786;12.728;2023-04-28T13:06:56;13.40;99.90
5276;DHT22;2661;50.786;12.728;2023-04-28T13:09:24;13.20;99.90
5276;DHT22;2661;50.786;12.728;2023-04-28T13:11:50;13.10;99.90
5276;DHT22;2661;50.786;12.728;2023-04-28T13:14:19;13.00;99.90
5276;DHT22;2661;50.786;12.728;2023-04-28T13:16:45;12.90;99.90
5276;DHT22;2661;50.786;12.728;2023-04-28T13:19:12;12.90;99.90
5276;DHT22;2661;50.786;12.728;2023-04-28T13:21:40;12.90;99.90
5276;DHT22;2661;50.786;12.728;2023-04-28T13:24:09;13.00;99.90
5276;DHT22;2661;50.786;12.728;2023-04-28T13:26:36;13.00;99.90
5276;DHT22;2661;50.786;12.728;2023-04-28T13:29:05;12.90;99.90
5276;DHT22;2661;50.786;12.728;2023-04-28T13:31:34;12.90;99.90
5276;DHT22;2661;50.786;12.728;2023-04-28T13:34:01;12.80;99.90
5276;DHT22;2661;50.786;12.728;2023-04-28T13:36:29;12.70;99.90
5276;DHT22;2661;50.786;12.728;2023-04-28T13:38:56;12.60;99.90
5276;DHT22;2661;50.786;12.728;2023-04-28T13:41:22;12.60;99.90
5276;DHT22;2661;50.786;12.728;2023-04-28T13:43:49;12.50;99.90
5276;DHT22;2661;50.786;12.728;2023-04-28T13:46:16;12.50;99.90
5276;DHT22;2661;50.786;12.728;2023-04-28T13:48:43;12.50;99.90
5276;DHT22;2661;50.786;12.728;2023-04-28T13:51:09;12.50;99.90
5276;DHT22;2661;50.786;12.728;2023-04-28T13:53:36;12.60;99.90
5276;DHT22;2661;50.786;12.728;2023-04-28T13:56:05;12.50;99.90
5276;DHT22;2661;50.786;12.728;2023-04-28T13:58:32;12.50;99.90
5276;DHT22;2661;50.786;12.728;2023-04-28T14:00:59;12.50;99.90
5276;DHT22;2661;50.786;12.728;2023-04-28T14:03:25;12.50;99.90
5276;DHT22;2661;50.786;12.728;2023-04-28T14:05:53;12.50;99.90
5276;DHT22;2661;50.786;12.728;2023-04-28T14:08:21;12.50;99.90
5276;DHT22;2661;50.786;12.728;2023-04-28T14:10:48;12.50;99.90
5276;DHT22;2661;50.786;12.728;2023-04-28T14:13:15;12.40;99.90
5276;DHT22;2661;50.786;12.728;2023-04-28T14:15:41;12.50;99.90
5276;DHT22;2661;50.786;12.728;2023-04-28T14:18:23;12.50;99.90
5276;DHT22;2661;50.786;12.728;2023-04-28T14:20:49;12.50;99.90
5276;DHT22;2661;50.786;12.728;2023-04-28T14:23:16;12.40;99.90
5276;DHT22;2661;50.786;12.728;2023-04-28T14:25:43;12.50;99.90
5276;DHT22;2661;50.786;12.728;2023-04-28T14:28:09;12.50;99.90
5276;DHT22;2661;50.786;12.728;2023-04-28T14:30:36;12.50;99.90
5276;DHT22;2661;50.786;12.728;2023-04-28T14:33:03;12.40;99.90
5276;DHT22;2661;50.786;12.728;2023-04-28T14:35:29;12.40;99.90
5276;DHT22;2661;50.786;12.728;2023-04-28T14:37:57;12.40;99.90
5276;DHT22;2661;50.786;12.728;2023-04-28T14:40:23;12.40;99.90
5276;DHT22;2661;50.786;12.728;2023-04-28T14:42:51;12.40;99.90
5276;DHT22;2661;50.786;12.728;2023-04-28T14:45:18;12.40;99.90
5276;DHT22;2661;50.786;12.728;2023-04-28T14:47:45;12.30;99.90
5276;DHT22;2661;50.786;12.728;2023-04-28T14:50:11;12.30;99.90
5276;DHT22;2661;50.786;12.728;2023-04-28T14:52:39;12.30;99.90
5276;DHT22;2661;50.786;12.728;2023-04-28T14:55:06;12.30;99.90
5276;DHT22;2661;50.786;12.728;2023-04-28T14:57:33;12.20;99.90
5276;DHT22;2661;50.786;12.728;2023-04-28T15:00:00;12.20;99.90
5276;DHT22;2661;50.786;12.728;2023-04-28T15:02:27;12.20;99.90
5276;DHT22;2661;50.786;12.728;2023-04-28T15:04:55;12.20;99.90
5276;DHT22;2661;50.786;12.728;2023-04-28T15:07:23;12.20;99.90
5276;DHT22;2661;50.786;12.728;2023-04-28T15:09:49;12.10;99.90
5276;DHT22;2661;50.786;12.728;2023-04-28T15:12:16;12.10;99.90
5276;DHT22;2661;50.786;12.728;2023-04-28T15:14:43;12.00;99.90
5276;DHT22;2661;50.786;12.728;2023-04-28T15:17:09;12.00;99.90
5276;DHT22;2661;50.786;12.728;2023-04-28T15:19:36;12.00;99.90
5276;DHT22;2661;50.786;12.728;2023-04-28T15:22:03;12.00;99.90
5276;DHT22;2661;50.786;12.728;2023-04-28T15:24:29;12.00;99.90
5276;DHT22;2661;50.786;12.728;2023-04-28T15:26:56;11.90;99.90
5276;DHT22;2661;50.786;12.728;2023-04-28T15:29:23;11.90;99.90
5276;DHT22;2661;50.786;12.728;2023-04-28T15:31:50;11.90;99.90
5276;DHT22;2661;50.786;12.728;2023-04-28T15:34:17;11.90;99.90
5276;DHT22;2661;50.786;12.728;2023-04-28T15:36:44;11.90;99.90
5276;DHT22;2661;50.786;12.728;2023-04-28T15:39:11;11.90;99.90
5276;DHT22;2661;50.786;12.728;2023-04-28T15:41:37;11.90;99.90
5276;DHT22;2661;50.786;12.728;2023-04-28T15:44:04;12.00;99.90
5276;DHT22;2661;50.786;12.728;2023-04-28T15:46:31;12.00;99.90
5276;DHT22;2661;50.786;12.728;2023-04-28T15:48:58;12.10;99.90
5276;DHT22;2661;50.786;12.728;2023-04-28T15:51:25;12.00;99.90
5276;DHT22;2661;50.786;12.728;2023-04-28T15:53:51;12.00;99.90
5276;DHT22;2661;50.786;12.728;2023-04-28T15:56:20;11.90;99.90
5276;DHT22;2661;50.786;12.728;2023-04-28T15:58:49;12.00;99.90
5276;DHT22;2661;50.786;12.728;2023-04-28T16:01:16;11.90;99.90
5276;DHT22;2661;50.786;12.728;2023-04-28T16:03:43;11.90;99.90
5276;DHT22;2661;50.786;12.728;2023-04-28T16:06:13;11.90;99.90
5276;DHT22;2661;50.786;12.728;2023-04-28T16:08:40;11.90;99.90
5276;DHT22;2661;50.786;12.728;2023-04-28T16:11:06;12.00;99.90
5276;DHT22;2661;50.786;12.728;2023-04-28T16:13:33;11.90;99.90
5276;DHT22;2661;50.786;12.728;2023-04-28T16:16:02;11.90;99.90